createdAt,value
2022-10-01T00:02:25.101Z,93.78
2022-10-01T00:12:33.221Z,93.37
2022-10-01T00:22:45.365Z,93.57
2022-10-01T00:32:57.351Z,93.30
2022-10-01T00:43:27.042Z,93.17
2022-10-01T00:53:37.208Z,93.52
2022-10-01T01:03:41.555Z,93.05
2022-10-01T01:14:06.003Z,93.88
2022-10-01T01:24:40.148Z,94.66
2022-10-01T01:34:52.101Z,96.35
2022-10-01T01:44:59.672Z,96.30
2022-10-01T01:55:09.340Z,96.27
2022-10-01T02:05:18.179Z,96.67
2022-10-01T02:15:38.884Z,97.09
2022-10-01T02:25:47.088Z,97.34
2022-10-01T02:35:57.091Z,96.84
2022-10-01T02:46:07.220Z,96.50
2022-10-01T02:56:48.596Z,96.14
2022-10-01T03:06:51.883Z,95.86
2022-10-01T03:16:57.544Z,95.85
2022-10-01T03:27:06.261Z,95.59
2022-10-01T03:37:15.248Z,95.54
2022-10-01T03:47:27.552Z,95.04
2022-10-01T03:57:37.347Z,95.46
2022-10-01T04:07:44.353Z,95.33
2022-10-01T04:17:49.219Z,95.32
2022-10-01T04:28:09.415Z,94.74
2022-10-01T04:38:30.269Z,94.70
2022-10-01T04:48:39.552Z,94.28
2022-10-01T04:58:56.302Z,94.28
2022-10-01T05:09:08.124Z,93.20
2022-10-01T05:19:18.209Z,92.07
2022-10-01T05:29:26.002Z,90.97
2022-10-01T05:50:24.853Z,90.02
2022-10-01T06:00:36.191Z,89.42
2022-10-01T06:10:49.682Z,89.74
2022-10-01T06:20:53.995Z,90.60
2022-10-01T06:31:11.911Z,91.07
2022-10-01T06:41:19.540Z,90.30
2022-10-01T06:52:58.656Z,90.04
2022-10-01T07:02:29.024Z,89.94
2022-10-01T07:12:39.678Z,89.35
2022-10-01T07:22:44.394Z,87.30
2022-10-01T07:32:51.920Z,86.03
2022-10-01T07:42:55.692Z,85.18
2022-10-01T07:53:04.373Z,82.76
2022-10-01T08:03:41.837Z,80.11
2022-10-01T08:13:50.100Z,79.97
2022-10-01T08:24:00.625Z,81.11
2022-10-01T08:34:20.148Z,83.14
2022-10-01T08:44:31.757Z,82.70
2022-10-01T08:54:44.069Z,81.08
2022-10-01T09:04:52.561Z,81.71
2022-10-01T09:15:16.035Z,83.30
2022-10-01T09:25:28.938Z,82.49
2022-10-01T09:35:44.415Z,82.97
2022-10-01T09:45:59.089Z,83.18
2022-10-01T09:56:17.368Z,84.41
2022-10-01T10:06:34.030Z,84.03
2022-10-01T10:16:51.143Z,84.47
2022-10-01T10:27:04.496Z,85.14
2022-10-01T10:37:18.444Z,84.88
2022-10-01T10:47:25.068Z,85.74
2022-10-01T10:57:38.115Z,86.58
2022-10-01T11:07:46.593Z,86.23
2022-10-01T11:18:31.915Z,86.25
2022-10-01T11:28:48.477Z,86.91
2022-10-01T11:39:00.775Z,87.99
2022-10-01T11:49:38.291Z,89.46
2022-10-01T11:59:55.525Z,91.02
2022-10-01T12:10:16.794Z,92.82
2022-10-01T12:20:28.228Z,93.98
2022-10-01T12:30:38.373Z,92.87
2022-10-01T12:40:51.273Z,94.86
2022-10-01T12:51:13.623Z,94.35
2022-10-01T13:01:35.408Z,94.43
2022-10-01T13:12:03.788Z,94.41
2022-10-01T13:33:09.527Z,94.17
2022-10-01T13:43:33.911Z,94.56
2022-10-01T13:54:01.292Z,94.83
2022-10-01T14:04:22.200Z,95.34
2022-10-01T14:15:07.160Z,95.67
2022-10-01T14:25:27.044Z,95.14
2022-10-01T14:35:34.282Z,95.73
2022-10-01T14:45:53.005Z,95.36
2022-10-01T14:56:03.381Z,94.76
2022-10-01T15:06:16.984Z,95.37
2022-10-01T15:16:25.589Z,95.70
2022-10-01T15:26:35.401Z,95.76
2022-10-01T15:36:40.898Z,95.44
2022-10-01T15:46:46.632Z,96.10
2022-10-01T15:56:49.660Z,96.89
2022-10-01T16:06:58.661Z,96.73
2022-10-01T16:17:31.604Z,96.81
2022-10-01T16:38:26.516Z,97.32
2022-10-01T16:48:50.362Z,97.06
2022-10-01T16:58:54.420Z,97.29
2022-10-01T17:09:01.700Z,97.03
2022-10-01T17:19:08.107Z,97.45
2022-10-01T17:29:15.519Z,97.55
2022-10-01T17:40:31.813Z,97.57
2022-10-01T17:51:06.098Z,97.25
2022-10-01T18:01:29.684Z,96.24
2022-10-01T18:11:34.919Z,96.68
2022-10-01T18:21:37.986Z,96.16
2022-10-01T18:31:51.036Z,96.77
2022-10-01T18:42:00.126Z,96.16
2022-10-01T19:13:57.708Z,96.13
2022-10-01T19:24:21.801Z,95.95
2022-10-01T19:34:39.419Z,96.17
2022-10-01T19:44:57.051Z,95.77
2022-10-01T19:55:15.080Z,95.97
2022-10-01T20:05:36.465Z,96.45
2022-10-01T20:16:04.107Z,96.13
2022-10-01T20:26:24.102Z,96.26
2022-10-01T20:36:47.047Z,96.27
2022-10-01T20:47:00.102Z,96.33
2022-10-01T20:57:12.290Z,96.13
2022-10-01T21:07:37.124Z,96.37
2022-10-01T21:17:48.577Z,96.54
2022-10-01T21:28:22.890Z,96.75
2022-10-01T21:38:39.910Z,96.85
2022-10-01T21:48:52.583Z,96.77
2022-10-01T21:59:16.588Z,96.37
2022-10-01T22:09:28.843Z,95.81
2022-10-01T22:19:40.640Z,95.99
2022-10-01T22:29:56.314Z,95.66
2022-10-01T22:40:08.169Z,95.72
2022-10-01T22:50:50.488Z,95.54
2022-10-01T23:01:04.239Z,95.08
2022-10-01T23:11:32.932Z,94.83
2022-10-01T23:21:52.523Z,95.38
2022-10-01T23:32:06.824Z,95.51
2022-10-01T23:42:28.575Z,95.48
2022-10-01T23:52:45.582Z,95.20
